sensor_id;sensor_type;location;lat;lon;timestamp;pressure;altitude;pressure_sealevel;temperature
34807;BMP280;18310;55.586;12.286;2023-05-17T00:02:27;101318.22;;;14.48
34807;BMP280;18310;55.586;12.286;2023-05-17T00:05:30;101330.13;;;14.37
34807;BMP280;18310;55.586;12.286;2023-05-17T00:08:33;101329.59;;;14.31
34807;BMP280;18310;55.586;12.286;2023-05-17T00:11:37;101331.78;;;14.22
34807;BMP280;18310;55.586;12.286;2023-05-17T00:14:40;101335.47;;;14.11
34807;BMP280;18310;55.586;12.286;2023-05-17T00:17:44;101332.22;;;14.05
34807;BMP280;18310;55.586;12.286;2023-05-17T00:20:47;101327.72;;;13.97
34807;BMP280;18310;55.586;12.286;2023-05-17T00:23:50;101333.78;;;13.87
34807;BMP280;18310;55.586;12.286;2023-05-17T00:26:55;101337.16;;;13.80
34807;BMP280;18310;55.586;12.286;2023-05-17T00:29:58;101328.69;;;13.70
34807;BMP280;18310;55.586;12.286;2023-05-17T00:33:01;101324.50;;;13.57
34807;BMP280;18310;55.586;12.286;2023-05-17T00:36:05;101335.44;;;13.57
34807;BMP280;18310;55.586;12.286;2023-05-17T00:39:08;101329.69;;;13.46
34807;BMP280;18310;55.586;12.286;2023-05-17T00:42:13;101323.25;;;13.38
34807;BMP280;18310;55.586;12.286;2023-05-17T00:45:16;101339.13;;;13.33
34807;BMP280;18310;55.586;12.286;2023-05-17T00:48:19;101331.19;;;13.28
34807;BMP280;18310;55.586;12.286;2023-05-17T00:51:23;101342.47;;;13.26
34807;BMP280;18310;55.586;12.286;2023-05-17T00:54:26;101344.94;;;13.16
34807;BMP280;18310;55.586;12.286;2023-05-17T00:57:32;101336.66;;;13.12
34807;BMP280;18310;55.586;12.286;2023-05-17T01:00:35;101347.06;;;13.06
34807;BMP280;18310;55.586;12.286;2023-05-17T01:03:38;101343.00;;;13.00
34807;BMP280;18310;55.586;12.286;2023-05-17T01:06:42;101350.75;;;12.98
34807;BMP280;18310;55.586;12.286;2023-05-17T01:09:45;101351.13;;;12.97
34807;BMP280;18310;55.586;12.286;2023-05-17T01:13:02;101355.66;;;12.93
34807;BMP280;18310;55.586;12.286;2023-05-17T01:16:12;101354.88;;;12.92
34807;BMP280;18310;55.586;12.286;2023-05-17T01:19:39;101356.41;;;12.90
34807;BMP280;18310;55.586;12.286;2023-05-17T01:22:51;101369.31;;;12.93
34807;BMP280;18310;55.586;12.286;2023-05-17T01:26:03;101365.97;;;12.84
34807;BMP280;18310;55.586;12.286;2023-05-17T01:29:08;101367.44;;;12.81
34807;BMP280;18310;55.586;12.286;2023-05-17T01:32:12;101371.66;;;12.79
34807;BMP280;18310;55.586;12.286;2023-05-17T01:35:15;101382.59;;;12.79
34807;BMP280;18310;55.586;12.286;2023-05-17T01:38:18;101395.38;;;12.75
34807;BMP280;18310;55.586;12.286;2023-05-17T01:41:25;101390.72;;;12.75
34807;BMP280;18310;55.586;12.286;2023-05-17T01:44:35;101396.63;;;12.77
34807;BMP280;18310;55.586;12.286;2023-05-17T01:47:44;101392.38;;;12.80
34807;BMP280;18310;55.586;12.286;2023-05-17T01:50:53;101391.19;;;12.77
34807;BMP280;18310;55.586;12.286;2023-05-17T01:54:01;101392.38;;;12.64
34807;BMP280;18310;55.586;12.286;2023-05-17T01:57:10;101418.28;;;12.70
34807;BMP280;18310;55.586;12.286;2023-05-17T02:00:16;101422.94;;;12.70
34807;BMP280;18310;55.586;12.286;2023-05-17T02:03:20;101422.84;;;12.66
34807;BMP280;18310;55.586;12.286;2023-05-17T02:06:23;101428.53;;;12.61
34807;BMP280;18310;55.586;12.286;2023-05-17T02:09:26;101438.66;;;12.60
34807;BMP280;18310;55.586;12.286;2023-05-17T02:12:29;101444.38;;;12.55
34807;BMP280;18310;55.586;12.286;2023-05-17T02:15:34;101443.59;;;12.55
34807;BMP280;18310;55.586;12.286;2023-05-17T02:18:37;101441.09;;;12.50
34807;BMP280;18310;55.586;12.286;2023-05-17T02:21:41;101440.97;;;12.46
34807;BMP280;18310;55.586;12.286;2023-05-17T02:24:44;101449.41;;;12.41
34807;BMP280;18310;55.586;12.286;2023-05-17T02:27:49;101441.88;;;12.38
34807;BMP280;18310;55.586;12.286;2023-05-17T02:30:54;101458.72;;;12.40
34807;BMP280;18310;55.586;12.286;2023-05-17T02:33:57;101453.63;;;12.39
34807;BMP280;18310;55.586;12.286;2023-05-17T02:37:01;101455.44;;;12.35
34807;BMP280;18310;55.586;12.286;2023-05-17T02:40:05;101466.25;;;12.31
34807;BMP280;18310;55.586;12.286;2023-05-17T02:43:10;101460.69;;;12.28
34807;BMP280;18310;55.586;12.286;2023-05-17T02:46:15;101465.44;;;12.31
34807;BMP280;18310;55.586;12.286;2023-05-17T02:49:18;101467.75;;;12.29
34807;BMP280;18310;55.586;12.286;2023-05-17T02:52:21;101475.59;;;12.30
34807;BMP280;18310;55.586;12.286;2023-05-17T02:55:24;101481.13;;;12.34
34807;BMP280;18310;55.586;12.286;2023-05-17T02:58:28;101482.03;;;12.38
34807;BMP280;18310;55.586;12.286;2023-05-17T03:01:33;101487.31;;;12.43
34807;BMP280;18310;55.586;12.286;2023-05-17T03:04:58;101486.03;;;12.52
34807;BMP280;18310;55.586;12.286;2023-05-17T03:08:01;101483.84;;;12.58
34807;BMP280;18310;55.586;12.286;2023-05-17T03:11:04;101488.53;;;12.57
34807;BMP280;18310;55.586;12.286;2023-05-17T03:14:08;101496.00;;;12.60
34807;BMP280;18310;55.586;12.286;2023-05-17T03:17:11;101500.44;;;12.65
34807;BMP280;18310;55.586;12.286;2023-05-17T03:20:16;101500.66;;;12.72
34807;BMP280;18310;55.586;12.286;2023-05-17T03:23:19;101510.69;;;12.68
34807;BMP280;18310;55.586;12.286;2023-05-17T03:26:22;101512.53;;;12.64
34807;BMP280;18310;55.586;12.286;2023-05-17T03:29:25;101499.88;;;12.59
34807;BMP280;18310;55.586;12.286;2023-05-17T03:32:29;101508.44;;;12.58
34807;BMP280;18310;55.586;12.286;2023-05-17T03:35:34;101518.34;;;12.63
34807;BMP280;18310;55.586;12.286;2023-05-17T03:38:37;101517.53;;;12.62
34807;BMP280;18310;55.586;12.286;2023-05-17T03:41:40;101515.59;;;12.63
34807;BMP280;18310;55.586;12.286;2023-05-17T03:44:44;101519.94;;;12.64
34807;BMP280;18310;55.586;12.286;2023-05-17T03:47:47;101519.56;;;12.65
34807;BMP280;18310;55.586;12.286;2023-05-17T03:50:51;101521.28;;;12.70
34807;BMP280;18310;55.586;12.286;2023-05-17T03:53:56;101530.25;;;12.82
34807;BMP280;18310;55.586;12.286;2023-05-17T03:57:00;101527.50;;;12.82
34807;BMP280;18310;55.586;12.286;2023-05-17T04:00:05;101534.91;;;12.82
34807;BMP280;18310;55.586;12.286;2023-05-17T04:03:11;101524.88;;;12.86
34807;BMP280;18310;55.586;12.286;2023-05-17T04:06:15;101529.22;;;12.87
34807;BMP280;18310;55.586;12.286;2023-05-17T04:09:18;101523.97;;;12.82
34807;BMP280;18310;55.586;12.286;2023-05-17T04:12:21;101532.63;;;12.84
34807;BMP280;18310;55.586;12.286;2023-05-17T04:15:25;101534.66;;;12.87
34807;BMP280;18310;55.586;12.286;2023-05-17T04:18:28;101542.06;;;12.86
34807;BMP280;18310;55.586;12.286;2023-05-17T04:21:33;101536.97;;;12.85
34807;BMP280;18310;55.586;12.286;2023-05-17T04:24:36;101543.41;;;12.92
34807;BMP280;18310;55.586;12.286;2023-05-17T04:27:39;101547.88;;;12.97
34807;BMP280;18310;55.586;12.286;2023-05-17T04:30:43;101561.88;;;12.95
34807;BMP280;18310;55.586;12.286;2023-05-17T04:33:46;101550.59;;;12.97
34807;BMP280;18310;55.586;12.286;2023-05-17T04:36:51;101553.31;;;12.97
34807;BMP280;18310;55.586;12.286;2023-05-17T04:39:54;101558.63;;;13.05
34807;BMP280;18310;55.586;12.286;2023-05-17T04:43:00;101573.22;;;13.10
34807;BMP280;18310;55.586;12.286;2023-05-17T04:46:04;101575.47;;;13.20
34807;BMP280;18310;55.586;12.286;2023-05-17T04:49:07;101573.84;;;13.31
34807;BMP280;18310;55.586;12.286;2023-05-17T04:52:12;101586.16;;;13.52
34807;BMP280;18310;55.586;12.286;2023-05-17T04:55:15;101572.66;;;13.60
34807;BMP280;18310;55.586;12.286;2023-05-17T04:58:18;101592.50;;;13.69
34807;BMP280;18310;55.586;12.286;2023-05-17T05:01:21;101599.16;;;13.99
34807;BMP280;18310;55.586;12.286;2023-05-17T05:05:06;101602.66;;;14.31
34807;BMP280;18310;55.586;12.286;2023-05-17T05:08:10;101605.84;;;14.48
34807;BMP280;18310;55.586;12.286;2023-05-17T05:11:13;101619.72;;;14.56
34807;BMP280;18310;55.586;12.286;2023-05-17T05:14:16;101621.41;;;14.60
34807;BMP280;18310;55.586;12.286;2023-05-17T05:17:19;101640.16;;;14.58
34807;BMP280;18310;55.586;12.286;2023-05-17T05:20:24;101633.41;;;14.56
34807;BMP280;18310;55.586;12.286;2023-05-17T05:23:29;101641.94;;;14.51
34807;BMP280;18310;55.586;12.286;2023-05-17T05:26:32;101646.53;;;14.46
34807;BMP280;18310;55.586;12.286;2023-05-17T05:29:35;101644.59;;;14.47
34807;BMP280;18310;55.586;12.286;2023-05-17T05:32:39;101653.59;;;14.48
34807;BMP280;18310;55.586;12.286;2023-05-17T05:35:44;101663.13;;;14.54
34807;BMP280;18310;55.586;12.286;2023-05-17T05:38:48;101663.03;;;14.50
34807;BMP280;18310;55.586;12.286;2023-05-17T05:41:54;101659.06;;;14.48
34807;BMP280;18310;55.586;12.286;2023-05-17T05:44:58;101664.56;;;14.48
34807;BMP280;18310;55.586;12.286;2023-05-17T05:48:02;101670.47;;;14.50
34807;BMP280;18310;55.586;12.286;2023-05-17T05:51:08;101674.88;;;14.54
34807;BMP280;18310;55.586;12.286;2023-05-17T05:54:12;101685.91;;;14.73
34807;BMP280;18310;55.586;12.286;2023-05-17T05:57:15;101675.84;;;14.77
34807;BMP280;18310;55.586;12.286;2023-05-17T06:00:19;101679.34;;;14.78
34807;BMP280;18310;55.586;12.286;2023-05-17T06:03:23;101695.34;;;14.91
34807;BMP280;18310;55.586;12.286;2023-05-17T06:06:27;101696.31;;;14.99
34807;BMP280;18310;55.586;12.286;2023-05-17T06:09:50;101693.56;;;14.99
34807;BMP280;18310;55.586;12.286;2023-05-17T06:12:54;101719.13;;;15.03
34807;BMP280;18310;55.586;12.286;2023-05-17T06:15:57;101714.09;;;15.05
34807;BMP280;18310;55.586;12.286;2023-05-17T06:19:00;101712.28;;;15.13
34807;BMP280;18310;55.586;12.286;2023-05-17T06:22:04;101729.00;;;15.23
34807;BMP280;18310;55.586;12.286;2023-05-17T06:25:09;101721.19;;;15.25
34807;BMP280;18310;55.586;12.286;2023-05-17T06:28:13;101733.91;;;15.33
34807;BMP280;18310;55.586;12.286;2023-05-17T06:31:17;101732.94;;;15.41
34807;BMP280;18310;55.586;12.286;2023-05-17T06:34:22;101731.81;;;15.46
34807;BMP280;18310;55.586;12.286;2023-05-17T06:37:25;101730.69;;;15.47
34807;BMP280;18310;55.586;12.286;2023-05-17T06:40:30;101741.75;;;15.51
34807;BMP280;18310;55.586;12.286;2023-05-17T06:43:33;101745.72;;;15.53
34807;BMP280;18310;55.586;12.286;2023-05-17T06:46:38;101754.09;;;15.60
34807;BMP280;18310;55.586;12.286;2023-05-17T06:49:42;101766.69;;;15.61
34807;BMP280;18310;55.586;12.286;2023-05-17T06:53:03;101769.53;;;15.68
34807;BMP280;18310;55.586;12.286;2023-05-17T06:56:06;101763.41;;;16.13
34807;BMP280;18310;55.586;12.286;2023-05-17T06:59:09;101771.09;;;16.69
34807;BMP280;18310;55.586;12.286;2023-05-17T07:02:13;101778.84;;;17.12
34807;BMP280;18310;55.586;12.286;2023-05-17T07:05:17;101777.28;;;17.71
34807;BMP280;18310;55.586;12.286;2023-05-17T07:08:22;101785.81;;;18.29
34807;BMP280;18310;55.586;12.286;2023-05-17T07:11:25;101775.19;;;18.82
34807;BMP280;18310;55.586;12.286;2023-05-17T07:14:29;101788.50;;;19.27
34807;BMP280;18310;55.586;12.286;2023-05-17T07:17:32;101802.53;;;19.73
34807;BMP280;18310;55.586;12.286;2023-05-17T07:20:35;101803.38;;;20.09
34807;BMP280;18310;55.586;12.286;2023-05-17T07:23:40;101803.44;;;20.34
34807;BMP280;18310;55.586;12.286;2023-05-17T07:26:44;101815.66;;;20.08
34807;BMP280;18310;55.586;12.286;2023-05-17T07:29:47;101826.59;;;19.73
34807;BMP280;18310;55.586;12.286;2023-05-17T07:32:50;101830.34;;;19.33
34807;BMP280;18310;55.586;12.286;2023-05-17T07:35:54;101834.53;;;19.13
34807;BMP280;18310;55.586;12.286;2023-05-17T07:38:58;101842.31;;;18.93
34807;BMP280;18310;55.586;12.286;2023-05-17T07:42:02;101848.06;;;18.74
34807;BMP280;18310;55.586;12.286;2023-05-17T07:45:07;101852.59;;;18.56
34807;BMP280;18310;55.586;12.286;2023-05-17T07:48:11;101858.34;;;18.40
34807;BMP280;18310;55.586;12.286;2023-05-17T07:51:14;101855.16;;;18.34
34807;BMP280;18310;55.586;12.286;2023-05-17T07:54:22;101863.22;;;18.17
34807;BMP280;18310;55.586;12.286;2023-05-17T07:57:26;101883.09;;;18.00
34807;BMP280;18310;55.586;12.286;2023-05-17T08:00:29;101875.41;;;17.82
34807;BMP280;18310;55.586;12.286;2023-05-17T08:03:32;101881.16;;;17.74
34807;BMP280;18310;55.586;12.286;2023-05-17T08:06:35;101888.31;;;17.78
34807;BMP280;18310;55.586;12.286;2023-05-17T08:09:40;101898.63;;;17.81
34807;BMP280;18310;55.586;12.286;2023-05-17T08:12:46;101908.09;;;17.84
34807;BMP280;18310;55.586;12.286;2023-05-17T08:15:49;101898.63;;;17.85
34807;BMP280;18310;55.586;12.286;2023-05-17T08:19:02;101898.69;;;17.88
34807;BMP280;18310;55.586;12.286;2023-05-17T08:22:05;101903.81;;;17.90
34807;BMP280;18310;55.586;12.286;2023-05-17T08:25:10;101917.75;;;18.01
34807;BMP280;18310;55.586;12.286;2023-05-17T08:28:13;101926.53;;;18.10
34807;BMP280;18310;55.586;12.286;2023-05-17T08:31:16;101926.16;;;18.11
34807;BMP280;18310;55.586;12.286;2023-05-17T08:34:19;101932.03;;;18.10
34807;BMP280;18310;55.586;12.286;2023-05-17T08:37:23;101938.03;;;18.15
34807;BMP280;18310;55.586;12.286;2023-05-17T08:40:27;101936.78;;;18.13
34807;BMP280;18310;55.586;12.286;2023-05-17T08:43:31;101964.44;;;18.20
34807;BMP280;18310;55.586;12.286;2023-05-17T08:46:34;101946.13;;;18.34
34807;BMP280;18310;55.586;12.286;2023-05-17T08:49:39;101961.25;;;18.48
34807;BMP280;18310;55.586;12.286;2023-05-17T08:52:44;101950.47;;;18.35
34807;BMP280;18310;55.586;12.286;2023-05-17T08:55:49;101969.41;;;18.37
34807;BMP280;18310;55.586;12.286;2023-05-17T08:58:54;101963.47;;;18.35
34807;BMP280;18310;55.586;12.286;2023-05-17T09:02:00;101981.13;;;18.30
34807;BMP280;18310;55.586;12.286;2023-05-17T09:05:04;101979.06;;;18.24
34807;BMP280;18310;55.586;12.286;2023-05-17T09:08:07;101986.63;;;18.30
34807;BMP280;18310;55.586;12.286;2023-05-17T09:11:23;101992.63;;;18.36
34807;BMP280;18310;55.586;12.286;2023-05-17T09:14:31;101999.38;;;18.42
34807;BMP280;18310;55.586;12.286;2023-05-17T09:17:35;101991.91;;;18.42
34807;BMP280;18310;55.586;12.286;2023-05-17T09:20:38;102007.34;;;18.47
34807;BMP280;18310;55.586;12.286;2023-05-17T09:23:42;101999.53;;;18.53
34807;BMP280;18310;55.586;12.286;2023-05-17T09:27:03;102003.84;;;18.54
34807;BMP280;18310;55.586;12.286;2023-05-17T09:30:09;102004.97;;;18.49
34807;BMP280;18310;55.586;12.286;2023-05-17T09:33:13;102006.41;;;18.36
34807;BMP280;18310;55.586;12.286;2023-05-17T09:36:21;102009.81;;;18.26
34807;BMP280;18310;55.586;12.286;2023-05-17T09:39:24;102016.91;;;18.27
34807;BMP280;18310;55.586;12.286;2023-05-17T09:42:33;102014.75;;;18.39
34807;BMP280;18310;55.586;12.286;2023-05-17T09:45:38;102023.44;;;18.41
34807;BMP280;18310;55.586;12.286;2023-05-17T09:48:41;102018.66;;;18.38
34807;BMP280;18310;55.586;12.286;2023-05-17T09:51:48;102016.47;;;18.55
34807;BMP280;18310;55.586;12.286;2023-05-17T09:54:53;102023.31;;;18.68
34807;BMP280;18310;55.586;12.286;2023-05-17T09:58:02;102032.88;;;18.74
34807;BMP280;18310;55.586;12.286;2023-05-17T10:01:06;102046.91;;;18.95
34807;BMP280;18310;55.586;12.286;2023-05-17T10:04:10;102043.00;;;18.99
34807;BMP280;18310;55.586;12.286;2023-05-17T10:07:16;102046.25;;;19.09
34807;BMP280;18310;55.586;12.286;2023-05-17T10:10:20;102052.66;;;19.16
34807;BMP280;18310;55.586;12.286;2023-05-17T10:13:29;102034.47;;;19.08
34807;BMP280;18310;55.586;12.286;2023-05-17T10:16:49;102054.31;;;19.24
34807;BMP280;18310;55.586;12.286;2023-05-17T10:19:53;102053.63;;;19.34
34807;BMP280;18310;55.586;12.286;2023-05-17T10:22:57;102050.22;;;19.51
34807;BMP280;18310;55.586;12.286;2023-05-17T10:26:01;102066.06;;;19.62
34807;BMP280;18310;55.586;12.286;2023-05-17T10:29:06;102059.81;;;19.65
34807;BMP280;18310;55.586;12.286;2023-05-17T10:32:13;102064.97;;;19.70
34807;BMP280;18310;55.586;12.286;2023-05-17T10:35:19;102071.34;;;19.77
34807;BMP280;18310;55.586;12.286;2023-05-17T10:38:24;102071.81;;;19.86
34807;BMP280;18310;55.586;12.286;2023-05-17T10:41:45;102076.22;;;19.91
34807;BMP280;18310;55.586;12.286;2023-05-17T10:44:51;102088.09;;;19.98
34807;BMP280;18310;55.586;12.286;2023-05-17T10:48:26;102086.94;;;20.06
34807;BMP280;18310;55.586;12.286;2023-05-17T10:51:32;102084.25;;;20.17
34807;BMP280;18310;55.586;12.286;2023-05-17T10:54:39;102082.72;;;20.23
34807;BMP280;18310;55.586;12.286;2023-05-17T10:57:43;102089.41;;;20.26
34807;BMP280;18310;55.586;12.286;2023-05-17T11:00:52;102096.16;;;20.28
34807;BMP280;18310;55.586;12.286;2023-05-17T11:04:21;102096.63;;;20.34
34807;BMP280;18310;55.586;12.286;2023-05-17T11:07:47;102104.56;;;20.42
34807;BMP280;18310;55.586;12.286;2023-05-17T11:11:10;102107.00;;;20.54
34807;BMP280;18310;55.586;12.286;2023-05-17T11:14:15;102095.09;;;20.50
34807;BMP280;18310;55.586;12.286;2023-05-17T11:17:19;102094.69;;;20.48
34807;BMP280;18310;55.586;12.286;2023-05-17T11:20:33;102102.25;;;20.62
34807;BMP280;18310;55.586;12.286;2023-05-17T11:23:42;102106.22;;;20.65
34807;BMP280;18310;55.586;12.286;2023-05-17T11:26:45;102111.75;;;20.65
34807;BMP280;18310;55.586;12.286;2023-05-17T11:29:48;102114.94;;;20.67
34807;BMP280;18310;55.586;12.286;2023-05-17T11:32:52;102120.03;;;20.61
34807;BMP280;18310;55.586;12.286;2023-05-17T11:36:21;102101.47;;;20.65
34807;BMP280;18310;55.586;12.286;2023-05-17T11:39:25;102125.59;;;20.65
34807;BMP280;18310;55.586;12.286;2023-05-17T11:42:28;102123.16;;;20.45
34807;BMP280;18310;55.586;12.286;2023-05-17T11:45:39;102107.34;;;20.49
34807;BMP280;18310;55.586;12.286;2023-05-17T11:48:44;102131.06;;;20.50
34807;BMP280;18310;55.586;12.286;2023-05-17T11:51:50;102132.22;;;20.49
34807;BMP280;18310;55.586;12.286;2023-05-17T11:54:53;102136.97;;;20.45
34807;BMP280;18310;55.586;12.286;2023-05-17T11:57:58;102130.19;;;20.39
34807;BMP280;18310;55.586;12.286;2023-05-17T12:01:01;102121.84;;;20.29
34807;BMP280;18310;55.586;12.286;2023-05-17T12:04:05;102120.72;;;20.37
34807;BMP280;18310;55.586;12.286;2023-05-17T12:07:09;102123.16;;;20.45
34807;BMP280;18310;55.586;12.286;2023-05-17T12:10:13;102121.56;;;20.51
34807;BMP280;18310;55.586;12.286;2023-05-17T12:13:16;102134.66;;;20.54
34807;BMP280;18310;55.586;12.286;2023-05-17T12:16:20;102128.66;;;20.49
34807;BMP280;18310;55.586;12.286;2023-05-17T12:19:23;102141.28;;;20.43
34807;BMP280;18310;55.586;12.286;2023-05-17T12:22:32;102138.16;;;20.44
34807;BMP280;18310;55.586;12.286;2023-05-17T12:25:35;102147.25;;;20.52
34807;BMP280;18310;55.586;12.286;2023-05-17T12:28:40;102150.81;;;20.49
34807;BMP280;18310;55.586;12.286;2023-05-17T12:31:45;102146.41;;;20.34
34807;BMP280;18310;55.586;12.286;2023-05-17T12:34:50;102145.50;;;20.26
34807;BMP280;18310;55.586;12.286;2023-05-17T12:37:54;102148.72;;;20.28
34807;BMP280;18310;55.586;12.286;2023-05-17T12:40:59;102157.84;;;20.39
34807;BMP280;18310;55.586;12.286;2023-05-17T12:44:03;102155.97;;;20.50
34807;BMP280;18310;55.586;12.286;2023-05-17T12:47:16;102162.31;;;20.54
34807;BMP280;18310;55.586;12.286;2023-05-17T12:50:24;102169.88;;;20.65
34807;BMP280;18310;55.586;12.286;2023-05-17T12:53:35;102174.28;;;20.76
34807;BMP280;18310;55.586;12.286;2023-05-17T12:56:40;102174.25;;;20.73
34807;BMP280;18310;55.586;12.286;2023-05-17T12:59:46;102155.69;;;20.70
34807;BMP280;18310;55.586;12.286;2023-05-17T13:02:49;102175.84;;;20.74
34807;BMP280;18310;55.586;12.286;2023-05-17T13:06:00;102182.16;;;20.74
34807;BMP280;18310;55.586;12.286;2023-05-17T13:09:05;102191.28;;;20.71
34807;BMP280;18310;55.586;12.286;2023-05-17T13:12:08;102169.94;;;20.75
34807;BMP280;18310;55.586;12.286;2023-05-17T13:15:11;102181.84;;;20.90
34807;BMP280;18310;55.586;12.286;2023-05-17T13:18:16;102175.16;;;20.94
34807;BMP280;18310;55.586;12.286;2023-05-17T13:21:23;102185.41;;;20.90
34807;BMP280;18310;55.586;12.286;2023-05-17T13:24:29;102190.06;;;20.72
34807;BMP280;18310;55.586;12.286;2023-05-17T13:27:32;102190.47;;;20.67
34807;BMP280;18310;55.586;12.286;2023-05-17T13:30:35;102185.66;;;20.64
34807;BMP280;18310;55.586;12.286;2023-05-17T13:33:40;102195.88;;;20.49
34807;BMP280;18310;55.586;12.286;2023-05-17T13:36:44;102192.66;;;20.40
34807;BMP280;18310;55.586;12.286;2023-05-17T13:39:48;102191.47;;;20.41
34807;BMP280;18310;55.586;12.286;2023-05-17T13:42:51;102199.34;;;20.39
34807;BMP280;18310;55.586;12.286;2023-05-17T13:45:54;102194.97;;;20.38
34807;BMP280;18310;55.586;12.286;2023-05-17T13:48:59;102187.06;;;20.30
34807;BMP280;18310;55.586;12.286;2023-05-17T13:52:03;102195.03;;;20.42
34807;BMP280;18310;55.586;12.286;2023-05-17T13:55:11;102201.78;;;20.44
34807;BMP280;18310;55.586;12.286;2023-05-17T13:58:14;102210.88;;;20.45
34807;BMP280;18310;55.586;12.286;2023-05-17T14:01:18;102209.69;;;20.46
34807;BMP280;18310;55.586;12.286;2023-05-17T14:04:21;102217.63;;;20.51
34807;BMP280;18310;55.586;12.286;2023-05-17T14:07:25;102212.06;;;20.47
34807;BMP280;18310;55.586;12.286;2023-05-17T14:10:29;102223.16;;;20.51
34807;BMP280;18310;55.586;12.286;2023-05-17T14:13:32;102220.81;;;20.56
34807;BMP280;18310;55.586;12.286;2023-05-17T14:16:35;102215.31;;;20.63
34807;BMP280;18310;55.586;12.286;2023-05-17T14:19:38;102225.22;;;20.65
34807;BMP280;18310;55.586;12.286;2023-05-17T14:22:42;102234.28;;;20.61
34807;BMP280;18310;55.586;12.286;2023-05-17T14:25:47;102239.81;;;20.58
34807;BMP280;18310;55.586;12.286;2023-05-17T14:28:51;102237.78;;;20.48
34807;BMP280;18310;55.586;12.286;2023-05-17T14:31:54;102248.34;;;20.39
34807;BMP280;18310;55.586;12.286;2023-05-17T14:34:57;102251.88;;;20.32
34807;BMP280;18310;55.586;12.286;2023-05-17T14:38:00;102253.38;;;20.26
34807;BMP280;18310;55.586;12.286;2023-05-17T14:41:04;102270.28;;;20.14
34807;BMP280;18310;55.586;12.286;2023-05-17T14:44:08;102263.03;;;19.99
34807;BMP280;18310;55.586;12.286;2023-05-17T14:47:11;102272.47;;;19.94
34807;BMP280;18310;55.586;12.286;2023-05-17T14:50:14;102264.53;;;19.89
34807;BMP280;18310;55.586;12.286;2023-05-17T14:53:17;102275.53;;;19.86
34807;BMP280;18310;55.586;12.286;2023-05-17T14:56:22;102273.56;;;19.86
34807;BMP280;18310;55.586;12.286;2023-05-17T14:59:26;102274.78;;;19.89
34807;BMP280;18310;55.586;12.286;2023-05-17T15:02:31;102292.97;;;19.93
34807;BMP280;18310;55.586;12.286;2023-05-17T15:05:35;102294.84;;;19.82
34807;BMP280;18310;55.586;12.286;2023-05-17T15:08:40;102299.91;;;19.77
34807;BMP280;18310;55.586;12.286;2023-05-17T15:11:48;102296.34;;;19.76
34807;BMP280;18310;55.586;12.286;2023-05-17T15:14:52;102296.72;;;19.75
34807;BMP280;18310;55.586;12.286;2023-05-17T15:17:55;102305.84;;;19.79
34807;BMP280;18310;55.586;12.286;2023-05-17T15:21:00;102307.16;;;19.92
34807;BMP280;18310;55.586;12.286;2023-05-17T15:24:04;102307.31;;;20.06
34807;BMP280;18310;55.586;12.286;2023-05-17T15:27:10;102313.72;;;20.14
34807;BMP280;18310;55.586;12.286;2023-05-17T15:30:17;102305.50;;;20.21
34807;BMP280;18310;55.586;12.286;2023-05-17T15:33:21;102300.38;;;20.26
34807;BMP280;18310;55.586;12.286;2023-05-17T15:36:25;102297.69;;;20.30
34807;BMP280;18310;55.586;12.286;2023-05-17T15:39:28;102310.72;;;20.29
34807;BMP280;18310;55.586;12.286;2023-05-17T15:42:33;102305.91;;;20.26
34807;BMP280;18310;55.586;12.286;2023-05-17T15:45:37;102317.75;;;20.20
34807;BMP280;18310;55.586;12.286;2023-05-17T15:48:41;102316.09;;;20.15
34807;BMP280;18310;55.586;12.286;2023-05-17T15:51:45;102316.91;;;20.12
34807;BMP280;18310;55.586;12.286;2023-05-17T15:54:48;102317.50;;;19.95
34807;BMP280;18310;55.586;12.286;2023-05-17T15:57:53;102326.03;;;19.83
34807;BMP280;18310;55.586;12.286;2023-05-17T16:00:56;102326.00;;;19.79
34807;BMP280;18310;55.586;12.286;2023-05-17T16:05:41;102328.72;;;19.76
34807;BMP280;18310;55.586;12.286;2023-05-17T16:08:45;102328.34;;;19.77
34807;BMP280;18310;55.586;12.286;2023-05-17T16:11:49;102310.47;;;19.68
34807;BMP280;18310;55.586;12.286;2023-05-17T16:14:52;102327.56;;;19.80
34807;BMP280;18310;55.586;12.286;2023-05-17T16:17:55;102332.28;;;19.80
34807;BMP280;18310;55.586;12.286;2023-05-17T16:21:02;102330.03;;;19.85
34807;BMP280;18310;55.586;12.286;2023-05-17T16:24:05;102337.94;;;19.87
34807;BMP280;18310;55.586;12.286;2023-05-17T16:27:09;102347.75;;;19.84
34807;BMP280;18310;55.586;12.286;2023-05-17T16:30:13;102346.91;;;19.80
34807;BMP280;18310;55.586;12.286;2023-05-17T16:33:16;102364.28;;;19.77
34807;BMP280;18310;55.586;12.286;2023-05-17T16:36:22;102363.44;;;19.73
34807;BMP280;18310;55.586;12.286;2023-05-17T16:39:26;102362.59;;;19.69
34807;BMP280;18310;55.586;12.286;2023-05-17T16:42:29;102362.59;;;19.69
34807;BMP280;18310;55.586;12.286;2023-05-17T16:45:32;102366.16;;;19.70
34807;BMP280;18310;55.586;12.286;2023-05-17T16:48:35;102368.47;;;19.64
34807;BMP280;18310;55.586;12.286;2023-05-17T16:51:40;102377.84;;;19.60
34807;BMP280;18310;55.586;12.286;2023-05-17T16:54:43;102379.00;;;19.55
34807;BMP280;18310;55.586;12.286;2023-05-17T16:57:47;102380.84;;;19.47
34807;BMP280;18310;55.586;12.286;2023-05-17T17:00:50;102370.13;;;19.42
34807;BMP280;18310;55.586;12.286;2023-05-17T17:03:54;102384.59;;;19.32
34807;BMP280;18310;55.586;12.286;2023-05-17T17:06:59;102381.28;;;19.23
34807;BMP280;18310;55.586;12.286;2023-05-17T17:10:03;102395.72;;;19.13
34807;BMP280;18310;55.586;12.286;2023-05-17T17:13:06;102385.31;;;19.03
34807;BMP280;18310;55.586;12.286;2023-05-17T17:16:10;102395.53;;;18.99
34807;BMP280;18310;55.586;12.286;2023-05-17T17:19:13;102400.91;;;18.92